KLRF

Little Rock AFB Airport

Jacksonville, Arkansas, USA
TAF AMD KLRF 212257Z 2122/2221 14009KT 9999 SKC QNH3013INS BECMG 2205/2206 16009KT 9999 BKN020 WS020/18045KT QNH3011INS BECMG 2208/2209 16009KT 8000 BR OVC010 WS020/18045KT 510202 QNH3006INS TEMPO 2209/2212 OVC009 BECMG 2211/2212 16012KT 6000 BR OVC007 WS020/18045KT 510202 QNH3005INS BECMG 2215/2216 16012KT 8000 -SHRA OVC006 WS020/18045KT 510202 QNH2994INS TX07/2123Z TNM02/2215Z LAST NO AMDS AFT 2123 NEXT 2214
Issued Valid From Valid To
Jan-21 @ 22:57 UTC
(2 hours ago)
Jan-21 @ 22:00 UTC
(3 hours ago)
Jan-22 @ 21:00 UTC
(in 20 hours)
Jan-21 @ 22:00 to Jan-22 @ 05:00
TAF AMD KLRF 212257Z 2122/2221 14009KT 9999 SKC QNH3013INS
Wind Visibility Clouds Readings
140° at 9 knots Greater than 6 miles
  • Clear skies
Altimeter 30.12" Hg
Pressure 1019.92 hPa
Becoming Jan-22 @ 05:00 to Jan-22 @ 08:00
BECMG 2205/2206 16009KT 9999 BKN020 WS020/18045KT QNH3011INS
Wind Visibility Clouds Readings
160° at 9 knots
 Wind shear 2,000' AGL from 180° at 45 knots
Greater than 6 miles
  • Broken at 2,000' AGL
Altimeter 30.12" Hg
Pressure 1019.92 hPa
Becoming Jan-22 @ 08:00 to Jan-22 @ 11:00
BECMG 2208/2209 16009KT 8000 BR OVC010 WS020/18045KT 510202 QNH3006INS
Wind Visibility Clouds Conditions Readings Turbulence
160° at 9 knots
 Wind shear 2,000' AGL from 180° at 45 knots
497 miles
  • Overcast at 1,000' AGL
  • Mist
Altimeter 30.06" Hg
Pressure 1017.92 hPa
Light turbulence expected at 2,000' AGL extending to 4,000' AGL
Temporary Jan-22 @ 09:00 to Jan-22 @ 12:00
TEMPO 2209/2212 OVC009
Clouds
  • Overcast at 900' AGL
Becoming Jan-22 @ 11:00 to Jan-22 @ 15:00
BECMG 2211/2212 16012KT 6000 BR OVC007 WS020/18045KT 510202 QNH3005INS
Wind Visibility Clouds Conditions Readings Turbulence
160° at 12 knots
 Wind shear 2,000' AGL from 180° at 45 knots
373 miles
  • Overcast at 700' AGL
  • Mist
Altimeter 30.06" Hg
Pressure 1017.92 hPa
Light turbulence expected at 2,000' AGL extending to 4,000' AGL
Becoming Jan-22 @ 15:00 to Jan-22 @ 21:00
BECMG 2215/2216 16012KT 8000 -SHRA OVC006 WS020/18045KT 510202 QNH2994INS TX07/2123Z TNM02/2215Z LAST NO AMDS AFT 2123 NEXT 2214
Wind Visibility Clouds Conditions Readings Turbulence
160° at 12 knots
 Wind shear 2,000' AGL from 180° at 45 knots
497 miles
  • Overcast at 600' AGL
  • Light Rain
Altimeter 29.94" Hg
Pressure 1013.92 hPa
Light turbulence expected at 2,000' AGL extending to 4,000' AGL
TAF AMD KLRF 212257Z 2122/2221 14009KT 9999 SKC QNH3013INS BECMG 2205/2206 16009KT 9999 BKN020 WS020/18045KT QNH3011INS BECMG 2208/2209 16009KT 8000 BR OVC010 WS020/18045KT 510202 QNH3006INS TEMPO 2209/2212 OVC009 BECMG 2211/2212 16012KT 6000 BR OVC007 WS020/18045KT 510202 QNH3005INS BECMG 2215/2216 16012KT 8000 -SHRA OVC006 WS020/18045KT 510202 QNH2994INS TX07/2123Z TNM02/2215Z LAST NO AMDS AFT 2123 NEXT 2214
Issued Jan-21 @ 22:57 UTC
(2 hours ago)
Valid From Jan-21 @ 22:00 UTC
(3 hours ago)
Valid To Jan-22 @ 21:00 UTC
(in 20 hours)
Jan-21 @ 22:00 - Jan-22 @ 05:00
Wind Visibility
140° at 9 knots Greater than 6 miles
Clouds
  • Clear skies
Becoming Jan-22 @ 05:00 - Jan-22 @ 08:00
Wind Visibility
160° at 9 knots Greater than 6 miles
Clouds
  • Broken at 2,000' AGL
Becoming Jan-22 @ 08:00 - Jan-22 @ 11:00
Wind Visibility
160° at 9 knots 497 miles
Clouds
  • Overcast at 1,000' AGL
Conditions
  • Mist
Temporary Jan-22 @ 09:00 - Jan-22 @ 12:00
Clouds
  • Overcast at 900' AGL
Becoming Jan-22 @ 11:00 - Jan-22 @ 15:00
Wind Visibility
160° at 12 knots 373 miles
Clouds
  • Overcast at 700' AGL
Conditions
  • Mist
Becoming Jan-22 @ 15:00 - Jan-22 @ 21:00
Wind Visibility
160° at 12 knots 497 miles
Clouds
  • Overcast at 600' AGL
Conditions
  • Light Rain